createdAt,value
2018-06-11T00:01:05.783Z,90.33
2018-06-11T00:03:34.219Z,89.88
2018-06-11T00:06:02.619Z,89.22
2018-06-11T00:08:31.039Z,89.27
2018-06-11T00:10:59.508Z,89.15
2018-06-11T00:13:27.931Z,89.85
2018-06-11T00:15:56.499Z,89.67
2018-06-11T00:18:24.904Z,91.52
2018-06-11T00:20:53.304Z,91.23
2018-06-11T00:23:21.735Z,91.67
2018-06-11T00:25:50.147Z,91.27
2018-06-11T00:28:18.752Z,91.92
2018-06-11T00:30:47.227Z,91.46
2018-06-11T00:33:15.624Z,92.50
2018-06-11T00:35:44.047Z,91.72
2018-06-11T00:38:12.455Z,91.77
2018-06-11T00:40:41.048Z,92.79
2018-06-11T00:43:09.526Z,91.81
2018-06-11T00:45:37.959Z,92.87
2018-06-11T00:48:06.507Z,92.39
2018-06-11T00:50:34.955Z,92.22
2018-06-11T00:53:03.408Z,92.47
2018-06-11T00:56:13.923Z,92.30
2018-06-11T00:58:42.360Z,92.39
2018-06-11T01:01:10.826Z,91.60
2018-06-11T01:03:39.242Z,92.26
2018-06-11T01:06:07.664Z,92.39
2018-06-11T01:08:36.089Z,92.44
2018-06-11T01:11:04.577Z,91.13
2018-06-11T01:13:33.007Z,90.38
2018-06-11T01:16:01.410Z,91.77
2018-06-11T01:18:29.864Z,92.83
2018-06-11T01:20:58.276Z,92.21
2018-06-11T01:23:26.706Z,90.12
2018-06-11T01:25:55.127Z,89.12
2018-06-11T01:28:23.536Z,88.28
2018-06-11T01:30:51.983Z,91.55
2018-06-11T01:33:20.382Z,91.44
2018-06-11T01:35:48.802Z,90.16
2018-06-11T01:38:17.225Z,91.26
2018-06-11T01:40:45.645Z,91.42
2018-06-11T01:43:14.060Z,91.47
2018-06-11T01:45:42.461Z,90.61
2018-06-11T01:48:11.053Z,91.17
2018-06-11T01:50:39.499Z,90.53
2018-06-11T01:53:07.935Z,89.54
2018-06-11T01:55:36.376Z,86.20
2018-06-11T01:58:04.814Z,86.73
2018-06-11T02:00:33.640Z,85.24
2018-06-11T02:03:02.059Z,87.10
2018-06-11T02:05:30.505Z,88.54
2018-06-11T02:07:58.930Z,89.92
2018-06-11T02:10:27.371Z,91.34
2018-06-11T02:12:55.807Z,91.37
2018-06-11T02:15:24.279Z,89.95
2018-06-11T02:17:52.700Z,90.26
2018-06-11T02:20:21.149Z,90.99
2018-06-11T02:22:49.568Z,91.34
2018-06-11T02:25:18.026Z,92.36
2018-06-11T02:27:46.461Z,92.09
2018-06-11T02:30:14.891Z,89.54
2018-06-11T02:32:43.347Z,92.03
2018-06-11T02:35:11.772Z,91.36
2018-06-11T02:37:40.310Z,91.85
2018-06-11T02:40:08.764Z,91.34
2018-06-11T02:42:37.187Z,91.90
2018-06-11T02:45:05.905Z,91.80
2018-06-11T02:47:34.331Z,92.41
2018-06-11T02:50:02.895Z,93.62
2018-06-11T02:52:31.299Z,93.74
2018-06-11T02:54:59.721Z,94.78
2018-06-11T02:57:28.159Z,93.65
2018-06-11T02:59:56.583Z,93.30
2018-06-11T03:02:25.271Z,92.06
2018-06-11T03:04:53.674Z,91.20
2018-06-11T03:07:22.099Z,92.44
2018-06-11T03:09:50.568Z,93.18
2018-06-11T03:12:19.055Z,93.99
2018-06-11T03:14:47.643Z,93.56
2018-06-11T03:17:16.071Z,94.62
2018-06-11T03:19:44.463Z,93.99
2018-06-11T03:22:12.932Z,95.65
2018-06-11T03:24:41.340Z,95.72
2018-06-11T03:27:09.886Z,96.25
2018-06-11T03:29:38.322Z,96.91
2018-06-11T03:32:06.736Z,94.95
2018-06-11T03:34:35.169Z,94.97
2018-06-11T03:37:03.567Z,94.89
2018-06-11T03:39:32.161Z,95.39
2018-06-11T03:42:00.620Z,94.69
2018-06-11T03:44:29.046Z,94.72
2018-06-11T03:46:57.491Z,93.89
2018-06-11T03:49:25.912Z,94.14
2018-06-11T03:51:54.608Z,93.83
2018-06-11T03:54:23.055Z,94.16
2018-06-11T03:56:51.503Z,93.71
2018-06-11T03:59:19.948Z,93.53
2018-06-11T04:01:48.380Z,93.58
2018-06-11T04:04:16.911Z,93.16
2018-06-11T04:06:45.367Z,94.15
2018-06-11T04:09:13.779Z,93.79
2018-06-11T04:11:42.207Z,92.72
2018-06-11T04:14:10.637Z,92.64
2018-06-11T04:16:39.243Z,93.90
2018-06-11T04:19:07.647Z,94.29
2018-06-11T04:21:36.059Z,93.57
2018-06-11T04:24:04.540Z,92.51
2018-06-11T04:26:32.979Z,92.88
2018-06-11T04:29:01.428Z,91.53
2018-06-11T04:31:29.847Z,90.43
2018-06-11T04:33:58.302Z,88.62
2018-06-11T04:36:26.731Z,87.34
2018-06-11T04:38:55.264Z,85.54
2018-06-11T04:41:23.722Z,85.09
2018-06-11T04:43:52.151Z,84.66
2018-06-11T04:46:20.599Z,83.55
2018-06-11T04:48:49.027Z,81.58
2018-06-11T04:51:17.491Z,81.31
2018-06-11T04:53:45.919Z,79.64
2018-06-11T04:56:14.315Z,78.71
2018-06-11T04:58:42.783Z,78.72
2018-06-11T05:01:11.203Z,77.33
2018-06-11T05:03:39.656Z,75.90
2018-06-11T05:06:08.112Z,77.35
2018-06-11T05:08:36.527Z,77.09
2018-06-11T05:11:04.967Z,78.60
2018-06-11T05:13:33.367Z,78.15
2018-06-11T05:16:01.956Z,77.75
2018-06-11T05:18:30.376Z,75.72
2018-06-11T05:20:58.802Z,75.86
2018-06-11T05:23:27.329Z,75.39
2018-06-11T05:25:55.735Z,75.26
2018-06-11T05:28:24.330Z,76.33
2018-06-11T05:30:52.723Z,75.63
2018-06-11T05:33:21.127Z,73.84
2018-06-11T05:35:49.551Z,71.99
2018-06-11T05:38:17.977Z,71.46
2018-06-11T05:40:46.427Z,73.57
2018-06-11T05:43:14.864Z,73.08
2018-06-11T05:45:43.282Z,73.65
2018-06-11T05:48:11.737Z,71.58
2018-06-11T05:50:40.176Z,72.21
2018-06-11T05:53:08.866Z,72.26
2018-06-11T05:55:37.262Z,70.94
2018-06-11T05:58:05.722Z,68.80
2018-06-11T06:00:34.151Z,69.95
2018-06-11T06:03:02.584Z,70.03
2018-06-11T06:05:31.047Z,71.92
2018-06-11T06:07:59.495Z,69.81
2018-06-11T06:10:27.971Z,69.98
2018-06-11T06:12:56.427Z,68.43
2018-06-11T06:15:24.879Z,69.51
2018-06-11T06:17:53.667Z,68.77
2018-06-11T06:20:22.083Z,69.67
2018-06-11T06:22:50.491Z,69.82
2018-06-11T06:25:18.959Z,69.34
2018-06-11T06:27:47.395Z,70.92
2018-06-11T06:30:15.835Z,70.72
2018-06-11T06:32:44.263Z,69.95
2018-06-11T06:35:12.710Z,68.97
2018-06-11T06:37:41.119Z,69.88
2018-06-11T06:40:09.571Z,69.60
2018-06-11T06:42:37.986Z,68.21
2018-06-11T06:45:06.421Z,71.20
2018-06-11T06:47:34.839Z,72.27
2018-06-11T06:50:03.339Z,72.92
2018-06-11T06:52:31.743Z,73.44
2018-06-11T06:55:00.203Z,72.50
2018-06-11T06:57:28.675Z,74.06
2018-06-11T06:59:57.140Z,72.96
2018-06-11T07:02:25.551Z,73.47
2018-06-11T07:04:54.318Z,73.09
2018-06-11T07:07:22.734Z,74.04
2018-06-11T07:09:51.180Z,73.89
2018-06-11T07:12:19.618Z,73.87
2018-06-11T07:14:48.042Z,72.97
2018-06-11T07:17:16.487Z,73.87
2018-06-11T07:19:44.903Z,73.04
2018-06-11T07:22:13.335Z,74.82
2018-06-11T07:24:41.763Z,74.52
2018-06-11T07:27:10.191Z,73.55
2018-06-11T07:29:38.774Z,73.32
2018-06-11T07:32:07.299Z,74.91
2018-06-11T07:34:35.727Z,74.86
2018-06-11T07:37:04.187Z,73.72
2018-06-11T07:39:32.587Z,74.35
2018-06-11T07:42:01.206Z,74.67
2018-06-11T07:44:29.628Z,74.35
2018-06-11T07:46:58.043Z,75.16
2018-06-11T07:49:26.499Z,74.81
2018-06-11T07:51:54.919Z,74.29
2018-06-11T07:54:23.487Z,74.64
2018-06-11T07:56:51.934Z,73.63
2018-06-11T07:59:20.361Z,74.19
2018-06-11T08:01:48.803Z,74.46
2018-06-11T08:04:17.227Z,73.89
2018-06-11T08:06:45.679Z,73.49
2018-06-11T08:09:14.084Z,73.24
2018-06-11T08:11:42.540Z,72.78
2018-06-11T08:14:11.006Z,74.86
2018-06-11T08:16:39.456Z,73.27
2018-06-11T08:19:08.047Z,73.96
2018-06-11T08:21:36.452Z,71.70
2018-06-11T08:24:04.924Z,72.65
2018-06-11T08:26:33.359Z,72.52
2018-06-11T08:29:01.792Z,73.50
2018-06-11T08:31:30.245Z,73.53
2018-06-11T08:33:58.644Z,74.25
2018-06-11T08:36:27.094Z,73.28
2018-06-11T08:38:55.539Z,72.93
2018-06-11T08:41:27.374Z,72.95
2018-06-11T08:43:55.814Z,70.42
2018-06-11T08:46:24.271Z,70.55
2018-06-11T08:48:52.715Z,70.10
2018-06-11T08:51:21.183Z,69.34
2018-06-11T08:53:49.620Z,68.05
2018-06-11T08:56:18.143Z,67.12
2018-06-11T08:58:46.544Z,63.77
2018-06-11T09:01:14.969Z,65.25
2018-06-11T09:03:43.395Z,68.07
2018-06-11T09:06:11.811Z,66.73
2018-06-11T09:08:40.259Z,65.43
2018-06-11T09:11:08.819Z,65.18
2018-06-11T09:13:37.227Z,65.39
2018-06-11T09:16:05.684Z,64.75
2018-06-11T09:18:34.133Z,64.66
2018-06-11T09:21:02.623Z,64.48
2018-06-11T09:23:31.187Z,65.02
2018-06-11T09:25:59.620Z,65.63
2018-06-11T09:28:28.019Z,64.03
2018-06-11T09:30:56.480Z,67.10
2018-06-11T09:33:24.875Z,68.19
2018-06-11T09:35:53.301Z,66.45
2018-06-11T09:38:21.759Z,66.52
2018-06-11T09:40:50.193Z,68.37
2018-06-11T09:43:18.627Z,67.43
2018-06-11T09:45:47.063Z,67.07
2018-06-11T09:48:15.468Z,68.07
2018-06-11T09:50:44.031Z,67.54
2018-06-11T09:53:12.463Z,66.33
2018-06-11T09:55:40.908Z,65.60
2018-06-11T09:58:09.338Z,66.90
2018-06-11T10:00:37.986Z,68.59
2018-06-11T10:03:06.544Z,68.00
2018-06-11T10:05:34.947Z,66.18
2018-06-11T10:08:03.376Z,66.15
2018-06-11T10:10:31.847Z,66.92
2018-06-11T10:13:00.268Z,66.43
2018-06-11T10:15:28.815Z,67.14
2018-06-11T10:17:57.219Z,69.42
2018-06-11T10:20:25.684Z,67.50
2018-06-11T10:22:54.103Z,67.39
2018-06-11T10:25:22.579Z,66.51
2018-06-11T10:27:51.119Z,68.59
2018-06-11T10:30:19.584Z,69.37
2018-06-11T10:32:48.039Z,67.63
2018-06-11T10:35:16.511Z,67.80
2018-06-11T10:37:44.986Z,66.59
2018-06-11T10:40:13.591Z,67.09
2018-06-11T10:42:41.993Z,68.30
2018-06-11T10:45:10.419Z,67.55
2018-06-11T10:47:38.868Z,68.70
2018-06-11T10:50:07.287Z,66.59
2018-06-11T10:52:36.075Z,68.00
2018-06-11T10:55:04.553Z,64.85
2018-06-11T10:57:33.079Z,65.86
2018-06-11T11:00:01.500Z,68.22
2018-06-11T11:02:29.935Z,68.41
2018-06-11T11:04:58.396Z,66.41
2018-06-11T11:07:26.803Z,66.92
2018-06-11T11:09:55.215Z,66.90
2018-06-11T11:12:23.651Z,66.26
2018-06-11T11:14:52.048Z,67.00
2018-06-11T11:17:20.507Z,65.08
2018-06-11T11:19:48.915Z,65.58
2018-06-11T11:22:17.315Z,64.81
2018-06-11T11:24:45.799Z,64.82
2018-06-11T11:27:14.231Z,65.77
2018-06-11T11:29:42.711Z,65.93
2018-06-11T11:32:11.143Z,66.92
2018-06-11T11:34:39.599Z,67.25
2018-06-11T11:37:08.059Z,65.60
2018-06-11T11:39:36.474Z,66.73
2018-06-11T11:42:04.992Z,66.12
2018-06-11T11:44:33.500Z,64.78
2018-06-11T11:47:01.911Z,65.78
2018-06-11T11:49:30.347Z,67.71
2018-06-11T11:51:58.796Z,65.58
2018-06-11T11:54:27.251Z,65.45
2018-06-11T11:56:55.683Z,67.41
2018-06-11T11:59:24.108Z,69.50
2018-06-11T12:01:52.551Z,69.50
2018-06-11T12:04:20.979Z,67.90
2018-06-11T12:06:49.581Z,67.73
2018-06-11T12:09:17.987Z,68.32
2018-06-11T12:11:46.446Z,68.29
2018-06-11T12:14:14.883Z,67.53
2018-06-11T12:16:43.275Z,68.96
2018-06-11T12:19:11.704Z,67.56
2018-06-11T12:21:40.099Z,68.85
2018-06-11T12:24:08.559Z,68.11
2018-06-11T12:26:37.009Z,69.69
2018-06-11T12:29:05.437Z,70.84
2018-06-11T12:31:33.867Z,71.97
2018-06-11T12:34:02.258Z,72.63
2018-06-11T12:36:30.833Z,72.01
2018-06-11T12:38:59.229Z,73.87
2018-06-11T12:41:27.637Z,74.63
2018-06-11T12:43:56.063Z,76.72
2018-06-11T12:46:24.491Z,75.44
2018-06-11T12:48:52.996Z,75.13
2018-06-11T12:51:21.407Z,74.70
2018-06-11T12:53:49.839Z,75.89
2018-06-11T12:56:18.287Z,73.99
2018-06-11T12:58:46.736Z,74.09
2018-06-11T13:01:15.251Z,72.87
2018-06-11T13:03:43.673Z,76.01
2018-06-11T13:06:12.119Z,76.14
2018-06-11T13:08:40.586Z,76.90
2018-06-11T13:11:09.015Z,79.41
2018-06-11T13:13:37.445Z,77.75
2018-06-11T13:16:05.875Z,80.69
2018-06-11T13:18:34.319Z,81.56
2018-06-11T13:21:02.744Z,79.47
2018-06-11T13:23:31.160Z,80.29
2018-06-11T13:25:59.899Z,81.12
2018-06-11T13:28:28.303Z,79.41
2018-06-11T13:30:56.739Z,80.01
2018-06-11T13:33:25.187Z,78.98
2018-06-11T13:35:53.619Z,80.14
2018-06-11T13:38:22.045Z,81.09
2018-06-11T13:40:50.459Z,80.58
2018-06-11T13:43:18.867Z,81.14
2018-06-11T13:45:47.299Z,82.18
2018-06-11T13:48:15.732Z,84.52
2018-06-11T13:50:44.175Z,83.72
2018-06-11T13:53:12.619Z,84.00
2018-06-11T13:55:41.031Z,82.56
2018-06-11T13:58:09.584Z,81.03
2018-06-11T14:00:38.176Z,84.34
2018-06-11T14:03:06.732Z,85.12
2018-06-11T14:05:35.185Z,84.42
2018-06-11T14:08:03.624Z,84.03
2018-06-11T14:10:32.064Z,83.01
2018-06-11T14:13:00.480Z,84.59
2018-06-11T14:15:28.935Z,82.51
2018-06-11T14:17:57.359Z,83.51
2018-06-11T14:20:25.788Z,85.38
2018-06-11T14:22:54.235Z,85.09
2018-06-11T14:25:22.683Z,84.72
2018-06-11T14:27:51.136Z,84.23
2018-06-11T14:30:19.583Z,84.64
2018-06-11T14:32:48.039Z,85.38
2018-06-11T14:35:16.471Z,90.57
2018-06-11T14:37:44.900Z,91.99
2018-06-11T14:40:13.350Z,89.25
2018-06-11T14:42:41.776Z,89.55
2018-06-11T14:45:10.231Z,90.03
2018-06-11T14:47:38.675Z,92.56
2018-06-11T14:50:07.115Z,95.15
2018-06-11T14:52:35.555Z,95.78
2018-06-11T14:55:04.102Z,94.95
2018-06-11T14:57:32.519Z,94.78
2018-06-11T15:00:00.964Z,94.04
2018-06-11T15:02:29.411Z,94.96
2018-06-11T15:04:57.860Z,92.28
2018-06-11T15:07:26.367Z,92.37
2018-06-11T15:09:54.800Z,91.49
2018-06-11T15:12:23.210Z,90.17
2018-06-11T15:14:51.684Z,90.10
2018-06-11T15:17:20.399Z,91.82
2018-06-11T15:19:48.851Z,92.11
2018-06-11T15:22:17.315Z,93.42
2018-06-11T15:24:45.940Z,95.12
2018-06-11T15:27:14.411Z,92.74
2018-06-11T15:29:42.937Z,90.79
2018-06-11T15:32:11.375Z,89.39
2018-06-11T15:34:39.772Z,87.72
2018-06-11T15:37:08.274Z,89.45
2018-06-11T15:39:36.735Z,87.71
2018-06-11T15:42:05.203Z,88.62
2018-06-11T15:44:33.659Z,87.70
2018-06-11T15:47:02.129Z,87.33
2018-06-11T15:49:30.769Z,87.64
2018-06-11T15:51:59.249Z,88.61
2018-06-11T15:54:27.711Z,92.42
2018-06-11T15:56:56.203Z,92.72
2018-06-11T15:59:24.651Z,94.58
2018-06-11T16:01:53.431Z,91.59
2018-06-11T16:04:21.848Z,89.11
2018-06-11T16:06:50.291Z,91.08
2018-06-11T16:09:18.739Z,91.71
2018-06-11T16:11:47.191Z,93.86
2018-06-11T16:14:15.643Z,93.58
2018-06-11T16:16:44.057Z,95.21
2018-06-11T16:19:12.496Z,96.79
2018-06-11T16:21:40.944Z,95.88
2018-06-11T16:24:09.400Z,94.97
2018-06-11T16:26:37.892Z,95.21
2018-06-11T16:29:06.411Z,96.00
2018-06-11T16:31:34.886Z,95.63
2018-06-11T16:34:03.355Z,96.09
2018-06-11T16:36:31.758Z,94.69
2018-06-11T16:39:00.203Z,91.24
2018-06-11T16:41:28.671Z,90.84
2018-06-11T16:43:57.091Z,91.17
2018-06-11T16:46:25.551Z,88.73
2018-06-11T16:48:53.973Z,90.42
2018-06-11T16:51:22.543Z,91.56
2018-06-11T16:53:50.997Z,94.96
2018-06-11T16:56:19.455Z,95.52
2018-06-11T16:58:47.900Z,94.34
2018-06-11T17:01:16.326Z,92.75
2018-06-11T17:03:44.871Z,92.08
2018-06-11T17:06:13.316Z,92.12
2018-06-11T17:08:41.723Z,91.65
2018-06-11T17:11:10.179Z,95.73
2018-06-11T17:13:38.698Z,94.99
2018-06-11T17:16:07.431Z,93.73
2018-06-11T17:18:35.864Z,92.39
2018-06-11T17:21:04.295Z,95.01
2018-06-11T17:23:32.739Z,94.21
2018-06-11T17:26:01.780Z,93.70
2018-06-11T17:28:30.376Z,95.66
2018-06-11T17:30:58.886Z,92.84
2018-06-11T17:33:27.315Z,91.70
2018-06-11T17:35:55.788Z,91.77
2018-06-11T17:38:24.227Z,94.31
2018-06-11T17:40:52.668Z,94.56
2018-06-11T17:43:21.103Z,95.21
2018-06-11T17:45:49.660Z,96.11
2018-06-11T17:48:18.107Z,96.58
2018-06-11T17:50:46.626Z,96.25
2018-06-11T17:53:15.208Z,93.08
2018-06-11T17:55:43.659Z,96.97
2018-06-11T17:58:12.168Z,95.64
2018-06-11T18:00:40.610Z,95.13
2018-06-11T18:03:09.599Z,96.43
2018-06-11T18:05:38.068Z,96.68
2018-06-11T18:08:06.567Z,96.53
2018-06-11T18:10:35.360Z,95.78
2018-06-11T18:13:03.803Z,94.74
2018-06-11T18:15:32.242Z,91.89
2018-06-11T18:18:00.719Z,91.70
2018-06-11T18:20:29.159Z,89.48
2018-06-11T18:22:57.784Z,91.81
2018-06-11T18:25:26.317Z,91.54
2018-06-11T18:27:54.743Z,93.91
2018-06-11T18:30:23.199Z,91.21
2018-06-11T18:32:51.652Z,91.81
2018-06-11T18:35:20.384Z,90.38
2018-06-11T18:37:48.831Z,92.54
2018-06-11T18:40:18.172Z,89.91
2018-06-11T18:42:47.132Z,91.52
2018-06-11T18:45:15.629Z,89.07
2018-06-11T18:47:44.203Z,89.50
2018-06-11T18:50:12.714Z,89.67
2018-06-11T18:52:41.150Z,90.03
2018-06-11T18:55:09.696Z,91.93
2018-06-11T18:57:38.131Z,91.42
2018-06-11T19:00:06.984Z,91.52
2018-06-11T19:02:35.679Z,89.71
2018-06-11T19:05:04.295Z,88.86
2018-06-11T19:07:32.767Z,91.76
2018-06-11T19:10:01.842Z,92.49
2018-06-11T19:12:30.457Z,90.93
2018-06-11T19:14:58.986Z,90.31
2018-06-11T19:17:27.471Z,88.75
2018-06-11T19:19:55.969Z,88.15
2018-06-11T19:22:24.449Z,90.24
2018-06-11T19:24:53.066Z,90.42
2018-06-11T19:27:21.581Z,89.28
2018-06-11T19:29:50.065Z,91.59
2018-06-11T19:32:18.562Z,89.10
2018-06-11T19:34:46.992Z,88.86
2018-06-11T19:37:15.558Z,88.60
2018-06-11T19:39:43.995Z,88.20
2018-06-11T19:42:12.484Z,88.46
2018-06-11T19:44:40.939Z,88.00
2018-06-11T19:47:09.384Z,88.05
2018-06-11T19:49:38.027Z,89.09
2018-06-11T19:52:06.874Z,89.00
2018-06-11T19:54:35.356Z,89.25
2018-06-11T19:57:03.834Z,89.32
2018-06-11T19:59:32.280Z,88.86
2018-06-11T20:02:00.963Z,89.44
2018-06-11T20:04:29.423Z,90.55
2018-06-11T20:06:57.884Z,93.18
2018-06-11T20:09:26.360Z,91.40
2018-06-11T20:11:55.092Z,92.66
2018-06-11T20:14:23.748Z,90.57
2018-06-11T20:16:52.221Z,90.17
2018-06-11T20:19:20.760Z,90.09
2018-06-11T20:21:49.744Z,89.48
2018-06-11T20:24:18.220Z,90.23
2018-06-11T20:26:46.659Z,90.30
2018-06-11T20:29:15.213Z,91.26
2018-06-11T20:31:44.539Z,91.45
2018-06-11T20:34:12.988Z,92.27
2018-06-11T20:36:41.454Z,92.50
2018-06-11T20:39:09.954Z,93.01
2018-06-11T20:41:38.404Z,91.91
2018-06-11T20:44:06.864Z,92.15
2018-06-11T20:46:35.395Z,92.64
2018-06-11T20:49:04.043Z,92.94
2018-06-11T20:51:32.528Z,93.60
2018-06-11T20:54:01.028Z,93.26
2018-06-11T20:56:29.467Z,91.82
2018-06-11T20:58:57.939Z,90.14
2018-06-11T21:01:26.395Z,89.63
2018-06-11T21:03:54.943Z,89.44
2018-06-11T21:06:23.383Z,89.21
2018-06-11T21:08:51.807Z,89.46
2018-06-11T21:11:20.311Z,92.05
2018-06-11T21:13:48.738Z,90.78
2018-06-11T21:16:17.173Z,90.36
2018-06-11T21:18:45.635Z,90.44
2018-06-11T21:21:14.040Z,89.42
2018-06-11T21:23:42.523Z,90.42
2018-06-11T21:26:10.957Z,90.08
2018-06-11T21:28:39.415Z,87.21
2018-06-11T21:31:07.839Z,87.58
2018-06-11T21:33:36.611Z,88.23
2018-06-11T21:36:05.040Z,87.88
2018-06-11T21:38:33.455Z,89.76
2018-06-11T21:41:01.891Z,89.46
2018-06-11T21:43:30.280Z,87.74
2018-06-11T21:45:58.759Z,88.16
2018-06-11T21:48:27.199Z,88.69
2018-06-11T21:50:55.871Z,88.92
2018-06-11T21:53:24.363Z,88.33
2018-06-11T21:55:52.785Z,89.09
2018-06-11T21:58:21.206Z,88.92
2018-06-11T22:00:49.619Z,89.45
2018-06-11T22:03:18.305Z,91.40
2018-06-11T22:05:46.683Z,89.60
2018-06-11T22:08:15.144Z,89.76
2018-06-11T22:10:43.639Z,91.58
2018-06-11T22:13:12.104Z,90.46
2018-06-11T22:15:40.605Z,90.76
2018-06-11T22:18:09.052Z,92.53
2018-06-11T22:20:37.447Z,92.46
2018-06-11T22:23:05.911Z,94.79
2018-06-11T22:25:34.358Z,93.46
2018-06-11T22:28:03.183Z,92.97
2018-06-11T22:30:31.602Z,91.06
2018-06-11T22:33:00.012Z,90.55
2018-06-11T22:35:28.443Z,90.66
2018-06-11T22:37:56.868Z,90.33
2018-06-11T22:40:25.331Z,88.87
2018-06-11T22:42:53.788Z,90.49
2018-06-11T22:45:22.239Z,88.28
2018-06-11T22:47:50.696Z,86.33
2018-06-11T22:50:19.136Z,86.15
2018-06-11T22:52:47.687Z,86.41
2018-06-11T22:55:16.131Z,86.93
2018-06-11T22:57:44.555Z,88.07
2018-06-11T23:00:13.855Z,89.29
2018-06-11T23:02:42.260Z,89.23
2018-06-11T23:05:10.819Z,89.50
2018-06-11T23:07:39.239Z,90.06
2018-06-11T23:10:07.722Z,90.94
2018-06-11T23:12:36.155Z,91.51
2018-06-11T23:15:04.603Z,92.69
2018-06-11T23:17:33.244Z,92.75
2018-06-11T23:20:01.676Z,93.32
2018-06-11T23:22:30.138Z,94.68
2018-06-11T23:24:58.567Z,94.07
2018-06-11T23:27:26.988Z,94.89
2018-06-11T23:29:55.411Z,93.50
2018-06-11T23:32:23.832Z,92.80
2018-06-11T23:34:52.235Z,92.28
2018-06-11T23:37:20.695Z,90.07
2018-06-11T23:39:49.123Z,90.60
2018-06-11T23:42:17.610Z,90.85
2018-06-11T23:44:46.035Z,89.68
2018-06-11T23:47:14.440Z,89.75
2018-06-11T23:49:42.911Z,91.00
2018-06-11T23:52:11.339Z,90.81
2018-06-11T23:54:40.159Z,89.65
2018-06-11T23:57:08.595Z,90.46
2018-06-11T23:59:37.011Z,90.77
